Snowshoe, WV (26209)

7:34 AM EST on January 25, 2015 (GMT -0500)
RAWS MARLINTON WV US | Change Station
CLOSE
Current Station
Personal Weather Station
Location: Marlinton, WV
Elevation: 3082 ft
Nearby Weather Stations
Active Advisory: Special Statement Active Notice: Local Storm Report

Elev 3082 ft 38.22 °N, 80.04 °W | Updated 33 minutes ago

Overcast
Overcast
30 °F
Feels Like 30 °F
N
0
Wind Variable Wind from North
Gusts 0.0 mph

Today
High -- | Low -- °F
--% Chance of Precip.
Yesterday
High -- | Low -- °F
Precip. -- in
7:31 AM 5:34 PM
Waxing Crescent, 32% visible
Pressure 29.71 in
Visibility 5.0 miles
Clouds Overcast 600 ft
Windchill 30 °F
Dew Point 29 °F
Humidity 95%
Rainfall 0.01 in
Snow Depth Not available.
UV 0 out of 12
Pollen .10 out of 12
Air Quality Not available.
Flu Activity Not available.
METAR KHSP 251215Z AUTO 27008KT 5SM BR OVC006 M02/M02 A2971 RMK AO2 T10201020

More Conditions Fewer Conditions

Pressure 29.71 in
Visibility 5.0 miles
Clouds Overcast 600 ft
Windchill 30 °F
Dew Point 29 °F
Humidity 95%
Rainfall 0.01 in
Snow Depth Not available.
UV 0 out of 12
Pollen .10 out of 12
Air Quality Not available.
Flu Activity Not available.
METAR KHSP 251215Z AUTO 27008KT 5SM BR OVC006 M02/M02 A2971 RMK AO2 T10201020

More Conditions Fewer Conditions

10-Day Weather Forecast

Almanac

Astronomy

Jan. 25, 2015 Rise Set
Actual Time
Civil Twilight
Nautical Twilight
Astronomical Twilight
Moon
Length of Visible Light
Length of Day
Tomorrow will be .
, % of the Moon is Illuminated

Today's Extremes

State Highs State Lows

Community

WunderPhotos

Upload Photos

1,789,873 photos uploaded!

WunderBlogs® & News

Nearby

Air Quality

  Air Quality AQ Index Pollutant
Not available.

Snow Depth

Station Depth Elevation

Earthquake Activity

City Distance Mag. Time & Date
Minimum magnitude displayed is 2.5.

Coastal Water Temperatures

Place Temperature

Nearby Weather Stations